Terminal Aerodrome Forecast
Issued by NWS Wilmington, OH

Current Version | Previous Version | Graphics & Text | Print | Product List | Glossary On
Versions: 1 2 3 4 5 6 7 8 9 10 11 12 13 14 15 16 17 18 19 20 21 22 23 24 25 26 27 28
000
FTUS41 KILN 160500
TAFCVG
TAF
KCVG 160534Z 1606/1712 36005KT 5SM BR VCSH OVC035
     FM160800 02004KT 4SM BR OVC004
     FM161500 02006KT P6SM OVC015
     FM161800 01007KT P6SM BKN025
     FM162000 36007KT P6SM SCT035
     FM170000 VRB03KT P6SM SKC
     FM170900 VRB03KT 4SM BR SKC=

USA.gov is the U.S. government's official web portal to all federal, state and local government web resources and services.